Time;durP1;ratioP1;P1;durP2;ratioP2;P2;SDS_P1;SDS_P2;PMS_P1;PMS_P2;Temp;Humidity;BMP_temperature;BMP_pressure;BME280_temperature;BME280_humidity;BME280_pressure;Samples;Min_cycle;Max_cycle;Signal;HPM_P1;HPM_P2
2023/02/09 00:01:10;;;;;;;10.53;6.87;;;;;;;-0.81;58.88;96990.25;6071201;23;20172;-81
2023/02/09 00:03:36;;;;;;;11.97;7.60;;;;;;;-0.75;58.72;96990.75;6070600;23;20548;-81
2023/02/09 00:06:06;;;;;;;13.70;8.30;;;;;;;-0.80;58.50;96996.94;6071765;23;20204;-81
2023/02/09 00:08:33;;;;;;;11.53;8.00;;;;;;;-0.81;59.10;96993.59;6070355;23;20212;-81
2023/02/09 00:11:00;;;;;;;11.37;7.90;;;;;;;-0.79;58.87;97001.13;6070191;23;20248;-81
2023/02/09 00:13:26;;;;;;;13.30;7.93;;;;;;;-0.66;58.02;96997.09;6070467;23;20215;-81
2023/02/09 00:15:56;;;;;;;11.43;8.13;;;;;;;-0.59;58.07;96992.59;6055929;23;20223;-81
2023/02/09 00:18:24;;;;;;;10.17;7.63;;;;;;;-0.56;58.00;97000.00;6070318;23;20204;-81
2023/02/09 00:20:56;;;;;;;14.30;7.60;;;;;;;-0.55;58.21;96999.13;6055952;23;20205;-81
2023/02/09 00:23:22;;;;;;;11.07;7.47;;;;;;;-0.54;58.29;96998.22;6069897;23;20204;-81
2023/02/09 00:25:49;;;;;;;12.33;7.90;;;;;;;-0.49;57.67;96991.25;6069891;23;20216;-81
2023/02/09 00:28:15;;;;;;;11.07;8.07;;;;;;;-0.46;57.86;96996.16;6070080;23;20216;-81
2023/02/09 00:30:42;;;;;;;11.10;8.00;;;;;;;-0.45;57.56;96993.56;6068596;23;20197;-81
2023/02/09 00:33:09;;;;;;;10.50;8.00;;;;;;;-0.43;58.00;96983.34;6069314;23;20264;-81
2023/02/09 00:35:39;;;;;;;12.57;9.03;;;;;;;-0.47;57.94;96989.47;6070679;23;20260;-81
2023/02/09 00:38:06;;;;;;;12.70;8.43;;;;;;;-0.64;58.75;96990.28;6069299;23;20620;-81
2023/02/09 00:40:35;;;;;;;13.87;7.90;;;;;;;-0.71;58.41;96991.44;6070099;23;20185;-81
2023/02/09 00:43:01;;;;;;;12.53;8.37;;;;;;;-0.64;58.47;96984.41;6069066;23;20208;-81
2023/02/09 00:45:28;;;;;;;16.23;9.57;;;;;;;-0.53;58.56;96987.22;6069941;23;20220;-81
2023/02/09 00:47:54;;;;;;;12.80;9.33;;;;;;;-0.49;58.21;96986.19;6069131;23;20268;-81
2023/02/09 00:50:22;;;;;;;14.57;9.83;;;;;;;-0.54;58.68;96978.81;6070204;23;20200;-81
2023/02/09 00:52:48;;;;;;;11.60;9.03;;;;;;;-0.60;58.97;96975.78;6068463;23;20216;-81
2023/02/09 00:55:15;;;;;;;13.63;10.47;;;;;;;-0.57;58.75;96973.88;6069857;23;20212;-81
2023/02/09 00:57:42;;;;;;;13.80;9.63;;;;;;;-0.55;58.28;96973.81;6068938;23;20584;-81
2023/02/09 01:00:12;;;;;;;14.83;9.73;;;;;;;-0.53;58.39;96970.31;6053834;23;20280;-81
2023/02/09 01:02:39;;;;;;;14.00;9.93;;;;;;;-0.53;58.41;96967.78;6068696;23;20212;-80
2023/02/09 01:05:06;;;;;;;13.30;9.63;;;;;;;-0.55;58.29;96976.34;6069884;23;20201;-81
2023/02/09 01:07:34;;;;;;;12.20;9.03;;;;;;;-0.71;58.73;96979.63;6068605;23;20213;-81
2023/02/09 01:10:01;;;;;;;12.27;8.47;;;;;;;-0.70;58.35;96986.31;6069151;23;20196;-81
2023/02/09 01:12:28;;;;;;;11.00;8.03;;;;;;;-0.67;58.28;96980.28;6068931;23;20232;-81
2023/02/09 01:14:55;;;;;;;14.10;8.27;;;;;;;-0.63;58.40;96973.38;6069245;23;20212;-81
2023/02/09 01:17:21;;;;;;;11.50;8.17;;;;;;;-0.78;58.93;96985.88;6068476;23;20215;-81
2023/02/09 01:19:51;;;;;;;11.30;8.17;;;;;;;-0.82;58.89;96984.38;6069292;23;20181;-81
2023/02/09 01:22:18;;;;;;;14.27;8.20;;;;;;;-0.86;59.00;96982.88;6068048;23;20688;-81
2023/02/09 01:24:45;;;;;;;12.50;7.70;;;;;;;-1.18;60.21;96981.88;6069157;23;20200;-81
2023/02/09 01:27:12;;;;;;;11.50;7.90;;;;;;;-1.08;59.96;96974.66;6068868;23;20209;-81
2023/02/09 01:29:38;;;;;;;11.20;8.00;;;;;;;-1.25;59.99;96974.63;6067635;23;20188;-81
2023/02/09 01:32:05;;;;;;;11.80;8.10;;;;;;;-1.17;59.71;96968.34;6067614;23;20205;-81
2023/02/09 01:34:32;;;;;;;11.47;8.40;;;;;;;-1.18;59.62;96979.34;6069106;23;20200;-81
2023/02/09 01:36:58;;;;;;;14.03;8.57;;;;;;;-1.18;60.00;96971.75;6068059;23;20337;-81
2023/02/09 01:39:24;;;;;;;11.43;8.23;;;;;;;-1.26;60.40;96978.03;6069728;23;20188;-81
2023/02/09 01:41:52;;;;;;;11.20;8.03;;;;;;;-1.33;60.62;96972.44;6068771;23;20220;-81
2023/02/09 01:44:56;;;;;;;11.30;7.60;;;;;;;-1.31;60.42;96965.59;6069942;23;20208;-81
2023/02/09 01:47:22;;;;;;;12.20;7.73;;;;;;;-1.32;60.42;96966.50;6068546;23;20758;-81
2023/02/09 01:49:50;;;;;;;14.03;8.27;;;;;;;-1.53;61.08;96963.22;6069040;23;20884;-81
2023/02/09 01:52:20;;;;;;;12.83;8.50;;;;;;;-1.45;60.79;96967.94;6069767;23;20217;-81
2023/02/09 01:54:51;;;;;;;12.10;7.87;;;;;;;-1.48;60.71;96965.56;6070490;23;20212;-81
2023/02/09 01:57:25;;;;;;;11.43;8.13;;;;;;;-1.42;60.47;96968.63;6069644;23;20284;-81
2023/02/09 01:59:56;;;;;;;14.33;9.03;;;;;;;-1.34;60.04;96960.69;6039829;23;20260;-81
2023/02/09 02:02:22;;;;;;;10.33;8.07;;;;;;;-1.31;60.37;96959.72;6067644;23;20247;-81
2023/02/09 02:04:51;;;;;;;13.13;8.63;;;;;;;-1.25;59.61;96960.28;6070723;23;20205;-81
2023/02/09 02:07:24;;;;;;;10.43;8.00;;;;;;;-1.22;59.58;96959.31;6069617;23;20204;-81
2023/02/09 02:09:51;;;;;;;11.73;8.30;;;;;;;-1.17;59.41;96953.19;6071057;23;20161;-81
2023/02/09 02:12:19;;;;;;;10.50;7.70;;;;;;;-1.14;59.58;96947.13;6069729;23;20241;-81
2023/02/09 02:14:45;;;;;;;8.57;6.80;;;;;;;-1.20;59.19;96953.31;6070205;23;20201;-81
2023/02/09 02:17:25;;;;;;;12.20;8.37;;;;;;;-1.27;59.66;96946.91;6070709;23;20215;-81
2023/02/09 02:20:22;;;;;;;13.30;8.03;;;;;;;-1.33;59.16;96946.34;6071403;23;20169;-81
2023/02/09 02:23:14;;;;;;;9.83;6.93;;;;;;;-1.37;59.39;96947.41;6070094;23;20267;-81
2023/02/09 02:26:04;;;;;;;10.90;7.77;;;;;;;-1.48;59.67;96948.69;6071173;23;20200;-81
2023/02/09 02:28:42;;;;;;;10.67;7.83;;;;;;;-1.51;60.04;96960.63;6069039;23;20216;-81
2023/02/09 02:31:30;;;;;;;13.63;8.23;;;;;;;-1.58;60.03;96957.59;6068902;23;20203;-81
2023/02/09 02:34:03;;;;;;;14.20;8.20;;;;;;;-1.73;60.43;96948.97;6069593;23;20192;-81
2023/02/09 02:36:38;;;;;;;12.77;8.43;;;;;;;-1.92;60.63;96947.31;6054717;23;20221;-81
2023/02/09 02:39:14;;;;;;;12.40;8.17;;;;;;;-2.06;61.90;96947.91;6008620;23;20224;-81
2023/02/09 02:44:38;;;;;;;11.73;7.60;;;;;;;-2.22;62.66;96942.72;6070094;23;20257;-81
2023/02/09 02:47:09;;;;;;;11.33;8.17;;;;;;;-2.04;62.36;96955.41;6069555;23;20219;-81
2023/02/09 02:49:40;;;;;;;10.10;7.57;;;;;;;-1.92;61.92;96949.84;6070105;23;20173;-81
2023/02/09 02:52:09;;;;;;;10.83;7.67;;;;;;;-1.98;61.86;96947.59;6069128;23;20220;-81
2023/02/09 02:54:39;;;;;;;11.60;7.60;;;;;;;-2.01;61.99;96937.63;6070847;23;20256;-81
2023/02/09 02:57:11;;;;;;;13.87;7.60;;;;;;;-2.02;61.95;96941.03;6070269;23;20205;-81
2023/02/09 02:59:43;;;;;;;11.90;7.53;;;;;;;-2.08;62.26;96937.88;6071157;23;20166;-81
2023/02/09 03:02:16;;;;;;;11.83;7.83;;;;;;;-2.04;62.30;96932.72;6069339;23;20245;-81
2023/02/09 03:04:45;;;;;;;9.57;7.47;;;;;;;-2.03;62.18;96941.94;6069625;23;20246;-81
2023/02/09 03:07:12;;;;;;;12.97;7.93;;;;;;;-1.89;61.55;96949.72;6068546;23;20208;-81
2023/02/09 03:09:48;;;;;;;11.93;7.80;;;;;;;-1.81;61.40;96950.22;6070069;23;20192;-81
2023/02/09 03:12:23;;;;;;;12.07;7.67;;;;;;;-1.76;61.23;96946.59;6068703;23;20552;-81
2023/02/09 03:15:08;;;;;;;13.63;7.77;;;;;;;-1.79;61.06;96949.25;6072521;23;20200;-81
2023/02/09 03:17:46;;;;;;;11.70;7.60;;;;;;;-1.88;60.88;96939.53;6076620;23;20208;-81
2023/02/09 03:20:18;;;;;;;11.07;7.63;;;;;;;-1.86;61.19;96940.31;6077848;23;20165;-81
2023/02/09 03:22:51;;;;;;;11.77;8.13;;;;;;;-1.83;61.22;96940.16;6076752;23;20208;-81
2023/02/09 03:25:23;;;;;;;10.67;8.20;;;;;;;-1.76;60.99;96933.97;6079362;23;20224;-81
2023/02/09 03:27:57;;;;;;;12.43;8.37;;;;;;;-1.78;61.45;96939.97;6078204;23;20228;-81
2023/02/09 03:30:24;;;;;;;12.03;7.77;;;;;;;-1.82;61.25;96941.00;6074190;23;20189;-81
2023/02/09 03:32:55;;;;;;;11.13;8.23;;;;;;;-1.87;61.07;96941.19;6074707;23;20223;-81
2023/02/09 03:35:25;;;;;;;13.13;8.80;;;;;;;-1.81;61.08;96942.63;6074464;23;20216;-81
2023/02/09 03:37:51;;;;;;;15.93;8.90;;;;;;;-1.77;60.75;96942.44;6072495;23;20208;-81
2023/02/09 03:40:19;;;;;;;18.43;9.70;;;;;;;-1.73;60.11;96950.66;6073486;23;20184;-81
2023/02/09 03:42:45;;;;;;;11.20;8.67;;;;;;;-1.79;60.51;96940.84;6072017;23;20219;-81
2023/02/09 03:45:12;;;;;;;14.60;10.10;;;;;;;-1.88;60.74;96939.53;6072340;23;20200;-81
2023/02/09 03:47:38;;;;;;;14.37;9.07;;;;;;;-1.86;61.03;96937.78;6072719;23;20571;-81
2023/02/09 03:50:06;;;;;;;16.10;10.27;;;;;;;-1.82;60.79;96948.56;6072082;23;20181;-81
2023/02/09 03:52:33;;;;;;;17.70;9.97;;;;;;;-1.80;60.79;96940.03;6072060;23;20221;-81
2023/02/09 03:55:00;;;;;;;17.70;9.70;;;;;;;-1.84;60.74;96947.81;6073123;23;20197;-81
2023/02/09 03:57:27;;;;;;;14.10;9.87;;;;;;;-1.82;60.35;96941.81;6072478;23;20260;-81
2023/02/09 03:59:53;;;;;;;16.17;10.43;;;;;;;-1.86;61.04;96944.53;6071984;23;20183;-81
2023/02/09 04:02:19;;;;;;;20.13;11.20;;;;;;;-1.80;60.62;96935.00;6071849;23;20725;-81
2023/02/09 04:04:46;;;;;;;23.67;11.30;;;;;;;-1.80;61.00;96941.75;6071678;23;20764;-81
2023/02/09 04:07:14;;;;;;;15.57;10.23;;;;;;;-1.80;60.85;96942.56;6072305;23;20216;-81
2023/02/09 04:09:40;;;;;;;18.30;11.63;;;;;;;-1.91;61.43;96944.72;6056572;23;20216;-81
2023/02/09 04:12:07;;;;;;;17.03;10.93;;;;;;;-1.88;61.24;96943.78;6070436;23;20221;-81
2023/02/09 04:14:33;;;;;;;16.40;10.90;;;;;;;-1.84;61.17;96951.16;6056157;23;20454;-81
2023/02/09 04:17:00;;;;;;;15.63;10.40;;;;;;;-1.84;61.06;96946.09;6071384;23;20218;-81
2023/02/09 04:19:26;;;;;;;15.77;10.73;;;;;;;-1.83;60.90;96949.44;6070902;23;20644;-81
2023/02/09 04:21:52;;;;;;;16.37;10.73;;;;;;;-1.83;60.55;96947.75;6070732;23;20213;-81
2023/02/09 04:24:21;;;;;;;16.50;10.57;;;;;;;-1.86;60.89;96944.53;6071578;23;20208;-81
2023/02/09 04:26:47;;;;;;;16.13;11.13;;;;;;;-1.86;61.00;96949.56;6071328;23;20268;-81
2023/02/09 04:29:13;;;;;;;16.70;11.67;;;;;;;-1.85;60.96;96949.50;6069775;23;20178;-81
2023/02/09 04:31:40;;;;;;;20.47;11.87;;;;;;;-1.94;61.36;96942.34;6069241;23;20529;-81
2023/02/09 04:34:06;;;;;;;20.07;12.37;;;;;;;-1.92;61.42;96954.88;6069887;23;20188;-81
2023/02/09 04:36:33;;;;;;;20.20;12.13;;;;;;;-1.93;61.46;96949.03;6069722;23;20268;-81
2023/02/09 04:38:59;;;;;;;17.83;12.13;;;;;;;-1.96;61.33;96950.88;6069935;23;20664;-81
2023/02/09 04:41:27;;;;;;;22.57;13.57;;;;;;;-2.02;61.47;96951.13;6070434;23;20177;-81
2023/02/09 04:43:53;;;;;;;19.90;12.60;;;;;;;-2.02;61.32;96949.44;6070764;23;20177;-81
2023/02/09 04:46:20;;;;;;;20.60;12.67;;;;;;;-2.12;61.83;96950.72;6070938;23;20187;-81
2023/02/09 04:48:46;;;;;;;20.70;12.03;;;;;;;-2.19;61.54;96949.34;6055957;23;20221;-81
2023/02/09 04:51:13;;;;;;;19.40;12.30;;;;;;;-2.18;61.89;96956.03;6069035;23;20668;-81
2023/02/09 04:53:40;;;;;;;19.17;12.27;;;;;;;-2.20;61.67;96948.50;6070589;23;20181;-81
2023/02/09 04:56:06;;;;;;;16.00;11.27;;;;;;;-2.17;61.77;96948.38;6070331;23;20203;-81
2023/02/09 05:01:20;;;;;;;18.27;12.27;;;;;;;-2.25;62.03;96957.97;6068981;23;20169;-81
2023/02/09 05:03:47;;;;;;;21.33;12.70;;;;;;;-2.21;61.70;96963.72;6053999;23;20212;-82
2023/02/09 05:06:13;;;;;;;18.73;12.13;;;;;;;-2.26;61.86;96958.03;6069628;23;20588;-82
2023/02/09 05:08:40;;;;;;;20.30;12.97;;;;;;;-2.28;61.91;96964.84;6070585;23;20649;-82
2023/02/09 05:11:06;;;;;;;24.33;11.37;;;;;;;-2.24;61.37;96963.84;6069812;23;20204;-81
2023/02/09 05:13:34;;;;;;;18.13;12.40;;;;;;;-2.30;61.90;96964.91;6067658;23;20587;-82
2023/02/09 05:16:05;;;;;;;17.87;12.10;;;;;;;-2.35;61.82;96968.53;6054485;23;20589;-82
2023/02/09 05:18:31;;;;;;;19.57;12.70;;;;;;;-2.37;61.59;96965.25;6069496;23;20216;-82
2023/02/09 05:20:57;;;;;;;19.70;12.27;;;;;;;-2.39;61.72;96967.81;6070660;23;20236;-82
2023/02/09 05:23:24;;;;;;;18.93;13.30;;;;;;;-2.37;62.26;96970.28;6069369;23;20213;-82
2023/02/09 05:25:50;;;;;;;19.10;13.03;;;;;;;-2.33;61.86;96975.16;6069484;23;20248;-81
2023/02/09 05:28:17;;;;;;;19.60;13.07;;;;;;;-2.34;61.95;96978.56;6068341;23;20266;-82
2023/02/09 05:30:44;;;;;;;19.33;12.03;;;;;;;-2.34;61.61;96978.56;6069098;23;20588;-82
2023/02/09 05:33:11;;;;;;;17.00;11.93;;;;;;;-2.28;61.48;96980.78;6069743;23;20290;-82
2023/02/09 05:35:37;;;;;;;22.23;12.80;;;;;;;-2.26;61.56;96981.56;6068109;23;20201;-82
2023/02/09 05:38:04;;;;;;;20.03;13.80;;;;;;;-2.30;61.87;96985.09;6069269;23;20212;-82
2023/02/09 05:40:30;;;;;;;21.97;12.60;;;;;;;-2.35;61.76;96987.00;6051991;23;20209;-82
2023/02/09 05:42:58;;;;;;;18.33;12.77;;;;;;;-2.37;61.95;96992.97;6067551;23;20213;-82
2023/02/09 05:45:25;;;;;;;18.10;12.77;;;;;;;-2.40;62.05;96988.06;6054700;23;20897;-82
2023/02/09 05:47:53;;;;;;;19.00;13.07;;;;;;;-2.45;62.26;96996.63;6069512;23;20209;-81
2023/02/09 05:50:19;;;;;;;19.73;12.90;;;;;;;-2.44;62.02;96987.34;6069011;23;20220;-82
2023/02/09 05:52:46;;;;;;;23.60;13.00;;;;;;;-2.39;61.89;96992.22;6069078;23;20220;-82
2023/02/09 05:55:12;;;;;;;18.87;12.70;;;;;;;-2.40;61.78;96990.59;6066729;23;20208;-82
2023/02/09 05:57:39;;;;;;;19.30;13.03;;;;;;;-2.36;62.21;96987.88;6069846;23;20208;-82
2023/02/09 06:00:06;;;;;;;19.80;13.37;;;;;;;-2.36;62.29;96987.06;6070826;23;20317;-82
2023/02/09 06:02:33;;;;;;;17.83;13.00;;;;;;;-2.34;62.37;96987.81;6069650;23;20571;-82
2023/02/09 06:05:01;;;;;;;17.80;12.63;;;;;;;-2.33;61.93;96990.28;6070692;23;20205;-82
2023/02/09 06:07:27;;;;;;;19.03;12.60;;;;;;;-2.34;62.15;96990.34;6070066;23;20208;-82
2023/02/09 06:09:53;;;;;;;21.43;13.60;;;;;;;-2.39;62.34;96982.97;6070701;23;20188;-82
2023/02/09 06:12:20;;;;;;;20.63;12.97;;;;;;;-2.36;62.69;96987.88;6067515;23;20281;-82
2023/02/09 06:14:46;;;;;;;17.63;12.83;;;;;;;-2.33;62.37;96994.50;6069478;23;20201;-82
2023/02/09 06:17:13;;;;;;;22.13;12.93;;;;;;;-2.29;62.49;96998.50;6069007;23;20213;-82
2023/02/09 06:19:39;;;;;;;20.03;12.97;;;;;;;-2.27;62.13;96999.28;6039631;23;20213;-82
2023/02/09 06:22:07;;;;;;;23.83;14.13;;;;;;;-2.26;62.03;96998.41;6064690;23;20205;-82
2023/02/09 06:24:33;;;;;;;19.93;13.43;;;;;;;-2.20;62.30;96993.09;6070394;23;20204;-82
2023/02/09 06:27:00;;;;;;;19.40;13.03;;;;;;;-2.29;62.71;96999.34;6069148;23;20208;-82
2023/02/09 06:29:26;;;;;;;20.07;13.47;;;;;;;-2.25;62.25;96997.50;6053165;23;20264;-82
2023/02/09 06:31:52;;;;;;;19.93;13.70;;;;;;;-2.24;62.17;97012.59;6068675;23;20228;-82
2023/02/09 06:34:19;;;;;;;16.43;12.33;;;;;;;-2.29;62.12;97014.47;6070839;23;20551;-82
2023/02/09 06:36:45;;;;;;;19.67;12.83;;;;;;;-2.26;61.82;97011.81;6071180;23;20204;-82
2023/02/09 06:39:13;;;;;;;19.97;13.50;;;;;;;-2.20;66.21;97008.25;6074715;23;20176;-82
2023/02/09 06:41:39;;;;;;;24.13;14.03;;;;;;;-2.17;65.88;97019.03;6072035;23;20204;-82
2023/02/09 06:44:06;;;;;;;19.80;12.53;;;;;;;-2.08;64.28;97031.25;6056475;23;20922;-82
2023/02/09 06:46:33;;;;;;;39.20;24.87;;;;;;;-2.04;62.75;97037.00;6071976;23;20224;-82
2023/02/09 06:48:59;;;;;;;30.13;19.00;;;;;;;-2.04;62.26;97031.13;6073224;23;20181;-82
2023/02/09 06:51:26;;;;;;;20.50;13.23;;;;;;;-2.04;61.89;97026.06;6070878;23;20375;-82
2023/02/09 06:53:52;;;;;;;20.10;12.30;;;;;;;-2.01;61.80;97029.28;6072237;23;20608;-82
2023/02/09 06:56:20;;;;;;;16.47;11.80;;;;;;;-1.97;61.69;97035.03;6072175;23;20177;-82
2023/02/09 06:58:48;;;;;;;19.03;12.17;;;;;;;-1.99;61.58;97029.22;6070927;23;20578;-82
2023/02/09 07:01:15;;;;;;;17.33;11.93;;;;;;;-1.94;61.55;97034.91;6072315;23;20439;-82
2023/02/09 07:03:41;;;;;;;19.80;11.90;;;;;;;-1.86;61.02;97035.41;6071037;23;20209;-82
2023/02/09 07:06:10;;;;;;;20.57;12.57;;;;;;;-1.71;60.75;97032.22;6072675;23;20203;-82
2023/02/09 07:08:38;;;;;;;17.90;11.57;;;;;;;-1.52;59.61;97030.53;6056044;23;20213;-82
2023/02/09 07:11:06;;;;;;;15.80;10.93;;;;;;;-1.32;59.15;97039.75;6071657;23;20547;-82
2023/02/09 07:13:34;;;;;;;21.40;11.83;;;;;;;-1.21;58.77;97036.75;6072203;23;20208;-82
2023/02/09 07:16:03;;;;;;;16.97;10.83;;;;;;;-1.06;58.56;97036.06;6074398;23;20281;-82
2023/02/09 07:18:30;;;;;;;19.60;10.73;;;;;;;-0.86;58.06;97037.69;6072858;23;20684;-83
2023/02/09 07:20:58;;;;;;;13.60;10.67;;;;;;;-0.62;57.79;97040.78;6074274;23;20514;-82
2023/02/09 07:23:25;;;;;;;18.17;11.93;;;;;;;-0.37;56.67;97042.06;6071920;23;20227;-82
2023/02/09 07:25:52;;;;;;;20.87;11.73;;;;;;;-0.05;56.98;97040.50;6072037;23;20208;-82
2023/02/09 07:28:20;;;;;;;17.33;12.10;;;;;;;0.38;55.38;97035.00;6073005;23;20236;-82
2023/02/09 07:30:50;;;;;;;17.80;11.33;;;;;;;0.77;54.51;97032.13;6072690;23;20189;-82
2023/02/09 07:33:17;;;;;;;19.87;12.00;;;;;;;1.20;53.58;97033.97;6071135;23;20216;-82
2023/02/09 07:35:44;;;;;;;16.93;11.90;;;;;;;1.52;52.35;97023.78;6073667;23;20204;-82
2023/02/09 07:38:14;;;;;;;18.47;12.17;;;;;;;1.84;52.45;97022.78;6072613;23;20208;-82
2023/02/09 07:40:44;;;;;;;15.63;12.40;;;;;;;2.11;52.01;97022.94;6070988;23;20542;-82
2023/02/09 07:43:12;;;;;;;17.33;11.37;;;;;;;2.23;50.19;97024.75;6070946;23;20204;-82
2023/02/09 07:45:44;;;;;;;16.10;11.33;;;;;;;2.31;50.00;97024.31;6072846;23;20201;-82
2023/02/09 07:48:12;;;;;;;15.70;11.43;;;;;;;2.43;50.39;97024.41;6072330;23;20234;-82
2023/02/09 07:50:39;;;;;;;17.27;9.93;;;;;;;2.49;50.08;97035.13;6073590;23;20177;-82
2023/02/09 07:53:05;;;;;;;16.90;10.43;;;;;;;2.73;50.51;97031.91;6072229;23;20240;-83
2023/02/09 07:55:32;;;;;;;14.43;10.80;;;;;;;2.84;49.65;97035.53;6072128;23;20212;-82
2023/02/09 07:57:58;;;;;;;13.47;9.07;;;;;;;2.90;48.98;97038.50;6071110;23;20208;-82
2023/02/09 08:00:25;;;;;;;14.43;9.57;;;;;;;3.05;49.03;97029.94;6055672;23;20215;-82
2023/02/09 08:02:52;;;;;;;11.40;8.83;;;;;;;3.24;48.85;97029.63;6069852;23;20239;-82
2023/02/09 08:05:28;;;;;;;20.13;14.23;;;;;;;3.40;48.32;97032.03;6071642;23;20581;-83
2023/02/09 08:07:55;;;;;;;19.83;12.90;;;;;;;3.60;48.51;97036.66;6070326;23;20204;-83
2023/02/09 08:10:21;;;;;;;13.33;9.60;;;;;;;3.68;47.78;97036.97;6012030;23;20212;-82
2023/02/09 08:13:01;;;;;;;13.43;9.07;;;;;;;3.89;47.80;97022.03;6063214;23;20577;-82
2023/02/09 08:15:31;;;;;;;11.53;9.07;;;;;;;4.09;48.00;97029.19;6037695;23;20212;-82
2023/02/09 08:18:01;;;;;;;13.37;8.57;;;;;;;4.28;46.96;97026.25;6070344;23;20232;-82
2023/02/09 08:20:30;;;;;;;10.43;8.50;;;;;;;4.35;47.28;97029.22;6071800;23;20169;-82
2023/02/09 08:23:07;;;;;;;12.67;8.87;;;;;;;4.48;46.86;97024.91;6069659;23;20208;-82
2023/02/09 08:25:35;;;;;;;12.40;8.43;;;;;;;4.50;45.75;97020.53;6070042;23;20544;-83
2023/02/09 08:28:03;;;;;;;11.67;8.73;;;;;;;4.62;45.56;97024.78;6069601;23;20510;-84
2023/02/09 08:30:29;;;;;;;11.90;8.83;;;;;;;4.63;45.33;97012.84;6053862;23;20268;-84
2023/02/09 08:32:56;;;;;;;12.00;8.70;;;;;;;4.71;45.64;97023.34;6070126;23;20205;-82
2023/02/09 08:35:22;;;;;;;13.57;9.17;;;;;;;4.71;45.37;97023.34;6070541;23;20208;-82
2023/02/09 08:37:50;;;;;;;10.60;8.60;;;;;;;4.91;45.83;97025.34;6069787;23;20263;-83
2023/02/09 08:40:17;;;;;;;10.87;8.63;;;;;;;5.11;44.96;97026.53;6054630;23;20213;-82
2023/02/09 08:42:44;;;;;;;10.07;8.90;;;;;;;5.17;44.76;97029.47;6068722;23;20205;-82
2023/02/09 08:45:11;;;;;;;12.13;8.73;;;;;;;5.29;44.54;97026.97;6070981;23;20197;-82
2023/02/09 08:47:37;;;;;;;12.90;9.00;;;;;;;5.41;44.68;97029.47;6067508;23;20213;-82
2023/02/09 08:50:04;;;;;;;12.90;9.40;;;;;;;5.43;44.74;97025.06;6070063;23;20208;-82
2023/02/09 08:52:33;;;;;;;12.47;8.77;;;;;;;5.57;44.67;97021.53;6068842;23;20249;-82
2023/02/09 08:55:01;;;;;;;11.43;8.83;;;;;;;5.63;43.81;97022.81;6071004;23;20220;-82
2023/02/09 08:57:28;;;;;;;12.17;8.90;;;;;;;5.81;43.80;97021.50;6067490;23;20215;-82
2023/02/09 08:59:54;;;;;;;12.13;8.17;;;;;;;5.86;43.88;97030.47;6055612;23;20204;-82
2023/02/09 09:02:21;;;;;;;11.40;8.73;;;;;;;5.89;43.83;97022.59;6069321;23;20216;-82
2023/02/09 09:04:47;;;;;;;15.10;8.73;;;;;;;5.95;43.56;97023.91;6068701;23;20201;-82
2023/02/09 09:07:16;;;;;;;44.23;30.87;;;;;;;5.92;43.26;97019.00;6055676;23;20208;-82
2023/02/09 09:09:43;;;;;;;24.83;17.27;;;;;;;5.98;43.56;97015.97;6070089;23;20185;-82
2023/02/09 09:12:10;;;;;;;11.27;9.93;;;;;;;5.97;42.85;97018.66;6056275;23;20212;-82
2023/02/09 09:14:38;;;;;;;12.03;9.63;;;;;;;6.04;43.41;97015.53;6071289;23;20239;-82
2023/02/09 09:17:04;;;;;;;9.27;7.80;;;;;;;6.02;42.85;97014.84;6070401;23;20216;-82
2023/02/09 09:19:31;;;;;;;11.17;9.00;;;;;;;5.89;42.80;97019.22;6071536;23;20196;-82
2023/02/09 09:21:59;;;;;;;10.93;8.20;;;;;;;5.94;43.15;97024.00;6070718;23;20284;-82
2023/02/09 09:24:27;;;;;;;10.23;8.57;;;;;;;6.13;43.23;97021.72;6055137;23;20284;-82
2023/02/09 09:26:54;;;;;;;10.53;7.83;;;;;;;6.26;42.04;97014.78;6070625;23;20205;-82
2023/02/09 09:29:22;;;;;;;12.13;7.70;;;;;;;6.39;42.05;97019.78;6071656;23;20189;-82
2023/02/09 09:31:49;;;;;;;11.27;7.90;;;;;;;6.47;41.88;97025.13;6070396;23;20217;-83
2023/02/09 09:34:16;;;;;;;9.43;7.57;;;;;;;6.46;41.97;97020.94;6070369;23;20699;-82
2023/02/09 09:36:42;;;;;;;10.07;7.87;;;;;;;6.47;41.74;97020.84;6071626;23;20204;-82
2023/02/09 09:39:08;;;;;;;8.93;7.83;;;;;;;6.23;42.21;97020.09;6072461;23;20180;-82
2023/02/09 09:41:36;;;;;;;9.93;7.67;;;;;;;6.09;42.96;97025.44;6071637;23;20204;-82
2023/02/09 09:44:16;;;;;;;9.83;7.50;;;;;;;6.06;42.17;97036.69;6055827;23;20223;-82
2023/02/09 09:46:48;;;;;;;9.43;7.30;;;;;;;6.21;42.11;97029.63;6070765;23;20226;-82
2023/02/09 09:49:22;;;;;;;8.50;6.90;;;;;;;6.41;42.13;97040.94;6070144;23;20497;-82
2023/02/09 09:51:53;;;;;;;10.60;7.40;;;;;;;6.57;42.00;97039.66;6069740;23;20260;-83
2023/02/09 09:54:23;;;;;;;10.83;7.17;;;;;;;6.61;42.44;97039.44;6070548;23;20200;-82
2023/02/09 09:56:51;;;;;;;9.73;6.90;;;;;;;6.73;41.49;97046.22;6071462;23;20212;-82
2023/02/09 09:59:20;;;;;;;10.47;8.17;;;;;;;6.79;41.39;97046.53;6055454;23;20726;-82
2023/02/09 10:01:51;;;;;;;8.50;7.27;;;;;;;6.85;41.12;97046.06;6071653;23;20216;-82
2023/02/09 10:04:18;;;;;;;9.30;6.50;;;;;;;6.94;40.96;97050.47;6073398;23;20252;-82
2023/02/09 10:06:47;;;;;;;9.90;7.30;;;;;;;6.97;41.25;97046.88;6071968;23;20201;-82
2023/02/09 10:09:25;;;;;;;10.30;7.07;;;;;;;6.85;39.86;97053.75;6073130;23;20304;-82
2023/02/09 10:12:01;;;;;;;9.77;6.47;;;;;;;6.93;39.75;97053.16;6072713;23;20205;-82
2023/02/09 10:14:28;;;;;;;7.43;6.17;;;;;;;6.96;39.86;97052.91;6074344;23;20212;-82
2023/02/09 10:16:55;;;;;;;12.77;7.23;;;;;;;6.93;39.66;97042.91;6073699;23;20224;-82
2023/02/09 10:19:25;;;;;;;9.47;6.73;;;;;;;6.96;40.49;97050.38;6058551;23;20212;-82
2023/02/09 10:21:56;;;;;;;11.27;6.50;;;;;;;6.96;40.59;97044.44;6074527;23;20212;-82
2023/02/09 10:24:24;;;;;;;11.17;6.97;;;;;;;6.89;40.82;97044.91;6075997;23;20359;-82
2023/02/09 10:27:03;;;;;;;8.17;6.90;;;;;;;6.65;40.74;97043.41;6074457;23;20212;-82
2023/02/09 10:29:29;;;;;;;8.33;7.40;;;;;;;6.67;41.37;97039.81;6075156;23;20199;-82
2023/02/09 10:32:05;;;;;;;10.30;6.37;;;;;;;6.81;40.91;97029.31;6073473;23;20212;-82
2023/02/09 10:34:42;;;;;;;10.17;6.47;;;;;;;6.94;40.51;97026.63;6044773;23;20216;-82
2023/02/09 10:37:25;;;;;;;9.70;7.63;;;;;;;6.75;40.46;97022.09;6074074;23;20214;-82
2023/02/09 10:40:01;;;;;;;8.77;7.57;;;;;;;6.66;40.84;97016.88;6074535;23;20161;-82
2023/02/09 10:42:31;;;;;;;9.80;6.77;;;;;;;6.71;41.58;97022.47;6073883;23;20204;-82
2023/02/09 10:45:03;;;;;;;10.90;7.63;;;;;;;6.80;40.62;97019.19;6075101;23;20193;-82
2023/02/09 10:47:34;;;;;;;18.07;13.40;;;;;;;6.94;40.83;97011.25;6074191;23;20204;-82
2023/02/09 10:50:13;;;;;;;10.87;8.70;;;;;;;6.93;40.83;97007.88;6059391;23;20217;-82
2023/02/09 10:52:55;;;;;;;8.70;7.43;;;;;;;6.92;40.69;97013.97;6073618;23;20218;-82
2023/02/09 10:55:25;;;;;;;10.33;7.03;;;;;;;7.02;40.65;97006.38;6073696;23;20200;-82
2023/02/09 10:58:03;;;;;;;14.80;6.93;;;;;;;7.14;40.68;97013.09;6073862;23;20284;-82
2023/02/09 11:00:35;;;;;;;13.87;7.70;;;;;;;7.16;40.29;97002.72;6074458;23;20161;-82
2023/02/09 11:03:13;;;;;;;10.50;7.00;;;;;;;7.26;40.20;97003.63;6073754;23;20548;-82
2023/02/09 11:05:39;;;;;;;11.50;7.40;;;;;;;7.37;39.86;97000.22;6058433;23;20212;-82
2023/02/09 11:08:15;;;;;;;9.33;6.50;;;;;;;7.32;39.62;96995.44;6072529;23;20212;-82
2023/02/09 11:10:50;;;;;;;9.07;6.50;;;;;;;7.40;39.97;96994.84;6074459;23;20197;-82
2023/02/09 11:13:21;;;;;;;11.67;7.10;;;;;;;7.33;39.50;96986.00;6072456;23;20390;-82
2023/02/09 11:16:01;;;;;;;8.53;6.30;;;;;;;7.30;39.35;96991.41;6071885;23;20197;-82
2023/02/09 11:18:34;;;;;;;9.30;7.00;;;;;;;7.40;39.00;96994.84;6071065;23;20208;-82
2023/02/09 11:21:08;;;;;;;7.50;6.27;;;;;;;7.44;39.01;96991.94;6072115;23;20169;-82
2023/02/09 11:23:41;;;;;;;7.87;6.30;;;;;;;7.46;38.90;96992.63;6070211;23;20216;-82
2023/02/09 11:26:18;;;;;;;10.10;6.07;;;;;;;7.48;38.87;96984.81;6072706;23;20205;-81
2023/02/09 11:28:53;;;;;;;7.67;6.17;;;;;;;7.50;38.98;96983.75;6072419;23;20528;-82
2023/02/09 11:31:45;;;;;;;7.43;5.80;;;;;;;7.56;38.95;96983.25;6070371;23;20215;-82
2023/02/09 11:34:28;;;;;;;7.30;6.53;;;;;;;7.53;40.29;96980.13;6072123;23;20573;-82
2023/02/09 11:37:03;;;;;;;16.17;11.30;;;;;;;7.43;39.17;96967.25;6072626;23;20655;-82
2023/02/09 11:39:41;;;;;;;8.63;7.47;;;;;;;7.46;38.97;96976.44;6071553;23;20549;-82
2023/02/09 11:45:14;;;;;;;7.23;6.17;;;;;;;7.60;38.81;96965.88;6070828;23;20228;-82